Startpagina
METAR-TAF:

METAR-TAF

Vliegvelden :

Aeropuerto Internacional Jorge Chávez

Lima, Peru

breedte: 12-00S, lengte: 077-07W, hoogte: 12 m

Actueel weer

Dit bericht is 43 minuten geleden gemaakt, om 18:00 UTC
Wind 12 kt uit het zuiden
Temperatuur 27°C
Vochtigheid 70%
Druk 1013 hPa
Zicht 10 km of meer
Weinig wolken op 8000 ft

METAR: SPJC 191800Z 17012KT 9999 FEW080 27/21 Q1013 NOSIG RMK BIRD HAZARD RWY 15 PP000

Tijdstip: 13:43 (18:43 UTC)

Verwachting

Dit bericht is 1 uur en het 43 minuten geleden gemaakt, om 17:00 UTC
Verwachting geldig van 19 om 18 UTC tot 20 om 18 UTC
Wind 13 kt uit het zuidzuidwesten
Zicht 10 km of meer
Weinig wolken op 2000 ft
Verspreide wolken op 13000 ft
Tijdelijke
van 19 om 22 UTC tot 20 om 02 UTC
Gebroken wolken op 6000 ft
Van 20 om 0200 UTC
Wind 8 kt uit het zuiden
Zicht 10 km of meer
Weinig wolken op 2500 ft
Gebroken wolken op 5000 ft

TAF: SPJC 191700Z 1918/2018 20013KT 9999 FEW020 SCT130 TX29/1919Z TN23/2011Z TEMPO 1922/2002 BKN060 FM200200 17008KT 9999 FEW025 BKN050

Waarnemingen en weersverwachtingen van meer dan 4000 vliegvelden (METAR en TAF).

De beschikbare stations zijn de gele en rode punten op de kaart.

Ga met uw muis naar het station om de naam te zien.

Klik dan om waarnemingen en weersverwachtingen te zien.

kaart wijzigen: klik op de groene knoppen met een zwart kruis om in te zoomen, op de groene knop met een streepje om uit te zoomen of op de groene pijlen voor aangrenzende kaarten.


METAR-TAF: